Belfast, Ohio
Current Conditions -  °F | °C
As of 12:05 AM on Thursday 23 Oct 2014 (Local Time) from KILN Reporting Station
Overcast Overcast  
Wind Chill: 44°   Ceiling: 2900
Heat Index: 47°   Visibility: 10mi
Dew Point: 40°   Wind: 6mph
Humidity: 77%   Direction: 340°NNW
Pressure: 30.25"   Gusts: NA
Location:  39.1546°N, 83.569°W
Report Text: KILN 230405Z AUTO 34005KT 10SM OVC029 08/04 A3025 RMK AO2 T00830044
Loading
Personal Weather Stations






























Interactive Weather Map
Tropical Storm Tracking
New forecast layout! Learn more

10-Day Weather Forecast

Advertisements
Track Severe Weather on mobile